Aeroporto :







RITROVATECI SU...

 
LOGIN :

Iscrizione | Disclaimer

   EN    FR    IT 

 









Sommario :    VFR   VFR Marginale   IFR   IFR Intensivo   IFR Molto Intensivo
Visibilità : 
Base nubi : 
>= 8 km
>= 3000ft
5 / 8 km
1000 / 3000 ft
1500m / 5 km
500 / 1000 ft
800 / 1500m
200 / 500 ft
< 800m
< 200 ft
Simboli :   Temporali  Nebbia  Neve Forte  Precipitazioni Forti  Vento > 20 kt







- Altitudine del aeroporto : 76 ft
- Codice IATA : PWM


KPWM - Portland International Jetport

ULTIMO METAR :
  • 250451Z 08005KT 10SM OVC060 17/12 A3034 RMK AO2 SLP272 T01720122 402280117

METARs OBSOLETI :
  • 250351Z 06005KT 10SM OVC060 18/13 A3033 RMK AO2 SLP270 LAST T01830128
  • 250251Z 02004KT 10SM BKN055 18/13 A3032 RMK AO2 SLP265 T01780128 51017

TAF KPWM
Valido dal 25 a 00 ore il 26 a 00 ore UTC


242320Z 2500/2524 VRB02KT P6SM SCT060
FM250900 07010KT P6SM SKC
Nessun NOTAM noto per questo aeroporto.



MetMap, La meteo Aeronautica in un colpo d'occhio ! - Copyright ORBIFLY Dicembre 2007 - Disclaimer

ORBIFLY MET'MAP TEAM :

Programmazione e sviluppo : Alexandra Zaïnal
Concezione e sviluppo : Baudouin d'Aumeries
Co-Programmazione e sviluppo : Marc-Olivier Méhu
Supporto tecnico e logistico : Manuel Goepfert
Aiuto per la traduzione : Arnaldo La Scala

Contatto : metmap@orbifly.com




FONTI E CREDITI :

   NOAA